Pleasant Lake, Wisconsin
Current Conditions -  °F | °C
As of 10:56 AM on Wednesday 22 Oct 2014 (Local Time) from KY50 Reporting Station
Overcast Overcast  
Wind Chill: 44°   Ceiling: 100
Heat Index: 47°   Visibility: 10mi
Dew Point: 38°   Wind: 7mph
Humidity: 71%   Direction: 140°SE
Pressure: 30.37"   Gusts: NA
Location:  44.0358°N, 89.5222°W
Report Text: KY50 221556Z AUTO 14006KT 10SM OVC001 08/03 A3037 RMK AO2 TSNO T00830033 SLP288
Loading
Personal Weather Stations






























Interactive Weather Map
Tropical Storm Tracking
New forecast layout! Learn more

10-Day Weather Forecast

Advertisements
Track Severe Weather on mobile